Time;durP1;ratioP1;P1;durP2;ratioP2;P2;SDS_P1;SDS_P2;PMS_P1;PMS_P2;Temp;Humidity;BMP_temperature;BMP_pressure;BME280_temperature;BME280_humidity;BME280_pressure;Samples;Min_cycle;Max_cycle;Signal;HPM_P1;HPM_P2
2021/12/01 00:01:02;;;;;;;10.07;1.93;;;3.30;99.90;;;;;;4997546;28;20246;-70
2021/12/01 00:03:28;;;;;;;4.73;1.70;;;3.30;99.90;;;;;;4998187;28;20245;-71
2021/12/01 00:05:53;;;;;;;7.33;2.00;;;3.30;99.90;;;;;;5002225;28;20309;-69
2021/12/01 00:08:19;;;;;;;7.27;2.10;;;3.30;99.90;;;;;;5006706;28;20273;-70
2021/12/01 00:10:46;;;;;;;6.77;2.33;;;3.30;99.90;;;;;;5019834;28;20227;-70
2021/12/01 00:13:14;;;;;;;4.77;1.97;;;3.30;99.90;;;;;;5002904;28;20227;-70
2021/12/01 00:15:41;;;;;;;5.63;2.20;;;3.30;99.90;;;;;;5010000;28;20230;-70
2021/12/01 00:18:07;;;;;;;6.43;2.37;;;3.40;99.90;;;;;;5021604;28;20657;-69
2021/12/01 00:20:33;;;;;;;10.73;2.90;;;3.50;99.90;;;;;;5010661;28;20295;-71
2021/12/01 00:22:59;;;;;;;8.90;2.37;;;3.60;99.90;;;;;;5011023;28;20277;-71
2021/12/01 00:25:26;;;;;;;9.93;2.73;;;3.60;99.90;;;;;;5022385;28;20210;-71
2021/12/01 00:27:52;;;;;;;6.67;2.30;;;3.70;99.90;;;;;;5020449;28;20232;-70
2021/12/01 00:30:19;;;;;;;7.33;2.30;;;3.90;99.90;;;;;;5028229;28;20225;-71
2021/12/01 00:32:45;;;;;;;8.00;2.27;;;3.90;99.90;;;;;;5020799;28;20215;-71
2021/12/01 00:35:10;;;;;;;8.27;2.60;;;3.90;99.90;;;;;;4997729;28;20276;-70
2021/12/01 00:37:38;;;;;;;6.00;2.43;;;3.90;99.90;;;;;;4987586;28;20253;-69
2021/12/01 00:40:06;;;;;;;6.70;2.33;;;3.80;99.90;;;;;;4986662;28;20223;-68
2021/12/01 00:42:32;;;;;;;6.07;1.77;;;3.80;99.90;;;;;;5000392;28;20214;-69
2021/12/01 00:45:01;;;;;;;9.40;2.40;;;3.80;99.90;;;;;;5001740;28;20213;-68
2021/12/01 00:47:49;;;;;;;9.23;2.57;;;3.70;99.90;;;;;;5010689;28;20214;-69
2021/12/01 00:50:22;;;;;;;10.73;2.53;;;3.70;99.90;;;;;;5001506;28;20234;-69
2021/12/01 00:52:49;;;;;;;9.47;2.40;;;3.70;99.90;;;;;;5007739;28;20686;-71
2021/12/01 00:55:14;;;;;;;10.27;2.47;;;3.70;99.90;;;;;;5002127;28;20237;-70
2021/12/01 00:57:40;;;;;;;7.23;2.20;;;3.80;99.90;;;;;;5000240;28;20254;-71
2021/12/01 01:00:08;;;;;;;11.67;2.50;;;3.60;99.90;;;;;;5006312;28;20218;-71
2021/12/01 01:02:34;;;;;;;7.47;2.30;;;3.60;99.90;;;;;;5002641;28;20851;-71
2021/12/01 01:05:00;;;;;;;11.30;2.70;;;3.50;99.90;;;;;;5003940;28;20207;-71
2021/12/01 01:07:25;;;;;;;7.10;2.40;;;3.50;99.90;;;;;;4999361;28;20221;-71
2021/12/01 01:09:51;;;;;;;11.73;2.60;;;3.40;99.90;;;;;;5013643;28;20221;-70
2021/12/01 01:17:52;;;;;;;12.13;3.00;;;3.80;99.90;;;;;;5024203;28;20228;-71
2021/12/01 01:20:19;;;;;;;10.87;2.90;;;3.70;99.90;;;;;;5027130;28;20217;-70
2021/12/01 01:22:44;;;;;;;7.50;2.47;;;3.60;99.90;;;;;;5022700;28;20701;-70
2021/12/01 01:25:10;;;;;;;10.20;2.07;;;3.70;99.90;;;;;;5025681;28;20249;-70
2021/12/01 01:27:36;;;;;;;15.60;3.13;;;3.80;99.90;;;;;;5022504;28;20760;-70
2021/12/01 01:30:03;;;;;;;14.73;3.23;;;3.80;99.90;;;;;;5019752;28;20226;-70
2021/12/01 01:32:31;;;;;;;8.47;3.03;;;3.70;99.90;;;;;;5001821;28;20223;-70
2021/12/01 01:34:57;;;;;;;9.03;2.30;;;3.70;99.90;;;;;;5004155;28;20215;-71
2021/12/01 01:37:22;;;;;;;10.17;2.97;;;3.70;99.90;;;;;;4998971;28;20223;-71
2021/12/01 01:39:47;;;;;;;14.27;3.20;;;3.60;99.90;;;;;;5008765;28;20213;-71
2021/12/01 01:42:13;;;;;;;8.50;2.80;;;3.70;99.90;;;;;;4993747;28;21012;-70
2021/12/01 01:44:38;;;;;;;9.87;3.00;;;3.70;99.90;;;;;;4988019;28;20285;-70
2021/12/01 01:47:04;;;;;;;13.30;3.70;;;3.70;99.90;;;;;;5012388;28;20735;-70
2021/12/01 01:49:46;;;;;;;12.20;3.23;;;3.70;99.90;;;;;;4999856;28;20214;-71
2021/12/01 01:52:11;;;;;;;11.60;3.07;;;3.50;99.90;;;;;;5004516;28;20261;-71
2021/12/01 01:54:37;;;;;;;12.33;2.93;;;3.60;99.90;;;;;;5000556;28;20246;-71
2021/12/01 01:57:03;;;;;;;13.63;3.20;;;3.70;99.90;;;;;;5010473;28;20317;-71
2021/12/01 01:59:28;;;;;;;10.37;2.73;;;3.70;99.90;;;;;;5001935;28;20226;-70
2021/12/01 02:01:56;;;;;;;15.10;3.03;;;3.70;99.90;;;;;;5001884;28;20312;-70
2021/12/01 02:04:22;;;;;;;10.63;2.97;;;3.60;99.90;;;;;;5006260;28;20309;-68
2021/12/01 02:06:49;;;;;;;11.73;2.70;;;3.60;99.90;;;;;;5005737;28;20775;-70
2021/12/01 02:09:19;;;;;;;9.87;2.40;;;3.70;99.90;;;;;;5005814;28;20223;-72
2021/12/01 02:11:44;;;;;;;12.40;2.50;;;3.60;99.90;;;;;;5003306;28;20680;-70
2021/12/01 02:14:11;;;;;;;10.17;2.70;;;3.60;99.90;;;;;;5000011;28;20215;-70
2021/12/01 02:16:37;;;;;;;8.37;2.67;;;3.70;99.90;;;;;;5006154;28;20574;-71
2021/12/01 02:19:03;;;;;;;11.57;3.00;;;3.60;99.90;;;;;;5004302;28;20260;-70
2021/12/01 02:21:29;;;;;;;11.70;2.80;;;3.50;99.90;;;;;;5019674;28;20720;-71
2021/12/01 02:24:07;;;;;;;8.63;2.50;;;3.50;99.90;;;;;;5005727;28;20222;-70
2021/12/01 02:26:39;;;;;;;11.77;3.00;;;3.80;99.90;;;;;;5030619;28;20230;-71
2021/12/01 02:29:08;;;;;;;8.47;2.43;;;3.80;99.90;;;;;;5022959;28;20231;-70
2021/12/01 02:31:36;;;;;;;10.67;2.90;;;3.60;99.90;;;;;;5026729;28;20656;-70
2021/12/01 02:34:03;;;;;;;10.87;2.80;;;3.70;99.90;;;;;;5017674;28;20209;-70
2021/12/01 02:36:30;;;;;;;15.37;3.13;;;3.60;99.90;;;;;;5020988;28;20283;-69
2021/12/01 02:38:56;;;;;;;9.57;3.10;;;3.80;99.90;;;;;;5030938;28;20744;-72
2021/12/01 02:41:28;;;;;;;17.27;3.60;;;3.60;99.90;;;;;;5015448;28;20322;-69
2021/12/01 02:43:54;;;;;;;12.33;2.70;;;3.60;99.90;;;;;;5008526;28;20227;-72
2021/12/01 02:46:19;;;;;;;9.30;2.80;;;3.50;99.90;;;;;;4998571;28;20736;-69
2021/12/01 02:48:46;;;;;;;12.43;2.97;;;3.60;99.90;;;;;;5025179;28;20222;-70
2021/12/01 02:51:12;;;;;;;16.30;3.27;;;3.60;99.90;;;;;;5012844;28;20226;-72
2021/12/01 02:53:38;;;;;;;15.43;3.13;;;3.50;99.90;;;;;;5004068;28;20220;-70
2021/12/01 02:56:05;;;;;;;13.23;2.73;;;3.70;99.90;;;;;;5002791;28;20741;-69
2021/12/01 02:58:33;;;;;;;12.00;2.90;;;3.60;99.90;;;;;;5004141;28;20243;-69
2021/12/01 03:01:03;;;;;;;8.87;2.47;;;3.70;99.90;;;;;;4999323;28;20230;-71
2021/12/01 03:03:29;;;;;;;8.30;2.73;;;3.80;99.90;;;;;;5008220;28;20223;-71
2021/12/01 03:05:56;;;;;;;6.47;2.50;;;3.80;99.90;;;;;;5001728;28;20282;-70
2021/12/01 03:08:22;;;;;;;10.70;3.10;;;3.80;99.90;;;;;;5008449;28;20219;-72
2021/12/01 03:10:51;;;;;;;12.70;3.00;;;3.90;99.90;;;;;;5001002;28;20234;-71
2021/12/01 03:13:18;;;;;;;11.33;3.10;;;3.90;99.90;;;;;;5002937;28;20813;-69
2021/12/01 03:15:44;;;;;;;11.40;3.30;;;3.90;99.90;;;;;;5000922;28;20367;-68
2021/12/01 03:18:10;;;;;;;14.43;4.20;;;3.80;99.90;;;;;;5008523;28;20226;-69
2021/12/01 03:20:36;;;;;;;10.97;2.93;;;3.90;99.90;;;;;;5002031;28;20219;-68
2021/12/01 03:23:02;;;;;;;12.67;3.37;;;3.80;99.90;;;;;;5008254;28;20261;-70
2021/12/01 03:25:28;;;;;;;15.03;3.23;;;3.80;99.90;;;;;;5005159;28;20260;-70
2021/12/01 03:27:54;;;;;;;11.17;3.10;;;3.80;99.90;;;;;;5008065;28;20223;-70
2021/12/01 03:30:22;;;;;;;8.10;2.80;;;3.80;99.90;;;;;;5006315;28;20343;-69
2021/12/01 03:32:48;;;;;;;10.87;3.33;;;3.80;99.90;;;;;;5008424;28;20223;-69
2021/12/01 03:35:14;;;;;;;8.13;2.90;;;3.70;99.90;;;;;;5001129;28;20223;-69
2021/12/01 03:37:42;;;;;;;13.33;2.57;;;3.80;99.90;;;;;;5000780;28;20235;-69
2021/12/01 03:40:09;;;;;;;14.43;2.80;;;3.80;99.90;;;;;;5004556;28;20215;-70
2021/12/01 03:42:35;;;;;;;12.20;3.23;;;3.80;99.90;;;;;;5008054;28;20215;-69
2021/12/01 03:45:00;;;;;;;12.53;2.73;;;3.80;99.90;;;;;;5004521;28;20757;-69
2021/12/01 03:47:27;;;;;;;9.73;2.70;;;3.80;99.90;;;;;;5005416;28;20307;-68
2021/12/01 03:49:53;;;;;;;9.17;2.70;;;3.90;99.90;;;;;;5005172;28;20820;-70
2021/12/01 03:52:18;;;;;;;15.40;2.53;;;3.80;99.90;;;;;;5000530;28;20234;-70
2021/12/01 03:54:45;;;;;;;11.67;2.93;;;3.80;99.90;;;;;;5008442;28;20215;-69
2021/12/01 03:57:11;;;;;;;11.40;2.60;;;4.00;99.90;;;;;;5005666;28;20296;-70
2021/12/01 03:59:37;;;;;;;9.93;2.63;;;4.00;99.90;;;;;;5025472;28;20712;-69
2021/12/01 04:02:03;;;;;;;10.60;2.73;;;4.10;99.90;;;;;;5012059;28;20257;-69
2021/12/01 04:04:29;;;;;;;12.33;3.03;;;4.00;99.90;;;;;;5005122;28;20895;-69
2021/12/01 04:06:55;;;;;;;10.13;3.10;;;3.90;99.90;;;;;;4999081;28;20227;-69
2021/12/01 04:09:20;;;;;;;13.37;3.10;;;3.90;99.90;;;;;;5007105;28;20210;-69
2021/12/01 04:11:46;;;;;;;13.30;3.20;;;3.90;99.90;;;;;;4998882;28;20231;-68
2021/12/01 04:14:11;;;;;;;11.50;3.10;;;3.90;99.90;;;;;;4999684;28;20219;-67
2021/12/01 04:16:37;;;;;;;12.67;2.70;;;3.90;99.90;;;;;;5015401;28;20279;-69
2021/12/01 04:19:02;;;;;;;19.80;3.30;;;4.00;99.90;;;;;;4999361;28;20702;-69
2021/12/01 04:21:28;;;;;;;15.87;3.43;;;4.00;99.90;;;;;;5003885;28;20223;-69
2021/12/01 04:23:54;;;;;;;9.60;3.13;;;4.00;99.90;;;;;;5006091;28;20732;-70
2021/12/01 04:26:23;;;;;;;14.43;2.87;;;3.90;99.90;;;;;;5007023;28;20227;-68
2021/12/01 04:28:50;;;;;;;12.23;3.03;;;4.00;99.90;;;;;;4995130;28;20293;-69
2021/12/01 04:31:16;;;;;;;16.37;2.87;;;3.90;99.90;;;;;;5004159;28;20583;-68
2021/12/01 04:33:42;;;;;;;11.20;3.03;;;3.90;99.90;;;;;;4996864;28;20308;-67
2021/12/01 04:36:08;;;;;;;13.67;3.27;;;3.90;99.90;;;;;;5001905;28;20270;-68
2021/12/01 04:38:34;;;;;;;10.13;2.73;;;3.90;99.90;;;;;;5003979;28;20750;-67
2021/12/01 04:40:59;;;;;;;13.97;2.83;;;4.00;99.90;;;;;;5013414;28;20246;-68
2021/12/01 04:43:25;;;;;;;11.30;3.10;;;4.10;99.90;;;;;;5006223;28;20225;-68
2021/12/01 04:45:58;;;;;;;8.83;2.90;;;4.20;99.90;;;;;;5002316;28;20241;-67
2021/12/01 04:48:24;;;;;;;10.63;3.47;;;4.20;99.90;;;;;;4987692;28;20250;-68
2021/12/01 04:50:50;;;;;;;13.93;3.80;;;4.20;99.90;;;;;;4989738;28;20621;-68
2021/12/01 04:53:15;;;;;;;8.67;2.90;;;4.10;99.90;;;;;;4989910;28;20243;-69
2021/12/01 04:55:41;;;;;;;12.30;3.33;;;4.10;99.90;;;;;;5001865;28;20228;-68
2021/12/01 04:58:06;;;;;;;17.27;3.33;;;4.10;99.90;;;;;;5003047;28;20222;-68
2021/12/01 05:00:36;;;;;;;12.90;2.93;;;4.10;99.90;;;;;;5005286;28;20261;-69
2021/12/01 05:03:03;;;;;;;10.60;3.77;;;4.10;99.90;;;;;;5013075;28;20688;-69
2021/12/01 05:05:28;;;;;;;10.27;3.27;;;4.10;99.90;;;;;;5021719;28;20218;-67
2021/12/01 05:07:54;;;;;;;15.37;3.00;;;4.10;99.90;;;;;;5020467;28;20297;-69
2021/12/01 05:10:20;;;;;;;10.50;3.00;;;4.10;99.90;;;;;;5019126;28;20899;-68
2021/12/01 05:12:45;;;;;;;13.03;3.27;;;4.10;99.90;;;;;;5010739;28;20313;-69
2021/12/01 05:15:11;;;;;;;8.20;3.30;;;4.10;99.90;;;;;;5000744;28;20469;-75
2021/12/01 05:17:37;;;;;;;10.07;3.20;;;4.10;99.90;;;;;;5001401;28;20750;-76
2021/12/01 05:20:05;;;;;;;9.47;2.83;;;4.10;99.90;;;;;;5004643;28;20210;-78
2021/12/01 05:22:31;;;;;;;10.23;2.77;;;4.10;99.90;;;;;;5003483;28;20207;-74
2021/12/01 05:24:56;;;;;;;9.83;3.40;;;4.10;99.90;;;;;;4998812;28;20268;-78
2021/12/01 05:27:22;;;;;;;11.97;2.80;;;4.10;99.90;;;;;;5003167;28;20242;-77
2021/12/01 05:29:48;;;;;;;16.70;3.50;;;4.10;99.90;;;;;;5000930;28;20302;-76
2021/12/01 05:32:15;;;;;;;9.13;2.67;;;4.10;99.90;;;;;;5011559;28;20586;-73
2021/12/01 05:34:41;;;;;;;8.80;2.57;;;4.20;99.90;;;;;;5010561;28;20302;-76
2021/12/01 05:37:06;;;;;;;14.90;3.17;;;4.10;99.90;;;;;;4998282;28;20307;-78
2021/12/01 05:39:32;;;;;;;9.27;3.03;;;4.20;99.90;;;;;;4984356;28;20272;-76
2021/12/01 05:41:59;;;;;;;8.80;2.63;;;4.20;99.90;;;;;;5009346;28;20222;-77
2021/12/01 05:44:25;;;;;;;10.00;3.00;;;4.20;99.90;;;;;;5018344;28;20260;-78
2021/12/01 05:46:51;;;;;;;14.20;3.20;;;4.20;99.90;;;;;;5009279;28;20226;-77
2021/12/01 05:49:16;;;;;;;9.83;3.50;;;4.20;99.90;;;;;;5017451;28;20991;-76
2021/12/01 05:51:43;;;;;;;7.50;3.37;;;4.30;99.90;;;;;;5014304;28;20262;-79
2021/12/01 05:54:10;;;;;;;12.43;3.77;;;;;;;;;;4993788;28;20218;-76
2021/12/01 05:56:36;;;;;;;12.23;3.87;;;4.30;99.90;;;;;;4988816;28;20233;-77
2021/12/01 05:59:02;;;;;;;13.07;3.43;;;4.30;99.90;;;;;;4999058;28;20225;-76
2021/12/01 06:01:28;;;;;;;8.93;3.37;;;4.30;99.90;;;;;;5001311;28;20218;-79
2021/12/01 06:03:53;;;;;;;8.73;3.30;;;4.40;99.90;;;;;;5022160;28;20279;-78
2021/12/01 06:06:19;;;;;;;7.93;3.00;;;4.40;99.90;;;;;;5018058;28;20233;-78
2021/12/01 06:08:44;;;;;;;10.60;3.23;;;4.40;99.90;;;;;;5026465;28;20225;-78
2021/12/01 06:11:10;;;;;;;8.40;3.53;;;4.40;99.90;;;;;;5025699;28;20256;-80
2021/12/01 06:13:36;;;;;;;7.67;3.27;;;4.40;99.90;;;;;;5017357;28;20222;-80
2021/12/01 06:16:03;;;;;;;9.63;3.47;;;4.40;99.90;;;;;;5007846;28;20226;-79
2021/12/01 06:18:30;;;;;;;6.70;3.00;;;4.40;99.90;;;;;;4998532;28;20240;-76
2021/12/01 06:20:56;;;;;;;7.13;2.80;;;4.40;99.90;;;;;;4998298;28;20222;-75
2021/12/01 06:23:22;;;;;;;7.47;3.13;;;4.40;99.90;;;;;;5000370;28;20273;-76
2021/12/01 06:25:48;;;;;;;8.77;3.23;;;4.40;99.90;;;;;;5007654;28;20462;-78
2021/12/01 06:28:14;;;;;;;8.70;3.80;;;4.40;99.90;;;;;;5005944;28;20276;-76
2021/12/01 06:30:40;;;;;;;9.83;3.53;;;4.40;99.90;;;;;;5006206;28;20726;-73
2021/12/01 06:33:06;;;;;;;6.40;3.20;;;4.40;99.90;;;;;;5001261;28;20706;-72
2021/12/01 06:35:32;;;;;;;9.23;3.40;;;4.40;99.90;;;;;;5001410;28;20338;-76
2021/12/01 06:37:58;;;;;;;5.97;3.60;;;4.50;99.90;;;;;;5008021;28;20230;-74
2021/12/01 06:40:25;;;;;;;7.20;3.30;;;4.40;99.90;;;;;;4999597;28;20223;-75
2021/12/01 06:42:51;;;;;;;5.97;3.03;;;4.40;99.90;;;;;;5011199;28;20214;-75
2021/12/01 06:45:16;;;;;;;4.83;2.60;;;4.40;99.90;;;;;;5007753;28;20218;-77
2021/12/01 06:47:42;;;;;;;5.57;2.90;;;4.50;99.90;;;;;;5019174;28;20214;-75
2021/12/01 06:50:09;;;;;;;6.03;3.43;;;4.50;99.90;;;;;;5009149;28;20241;-76
2021/12/01 06:52:35;;;;;;;7.97;3.33;;;4.50;99.90;;;;;;5009619;28;20285;-77
2021/12/01 06:55:02;;;;;;;5.70;3.27;;;4.50;99.90;;;;;;5011179;28;20261;-75
2021/12/01 06:57:28;;;;;;;5.00;3.10;;;4.60;99.90;;;;;;4997903;28;20246;-77
2021/12/01 06:59:54;;;;;;;5.87;3.60;;;4.60;99.90;;;;;;4991713;28;20305;-78
2021/12/01 07:02:19;;;;;;;8.13;3.93;;;4.50;99.90;;;;;;4991521;28;20217;-75
2021/12/01 07:04:45;;;;;;;4.30;3.20;;;4.50;99.90;;;;;;5006384;28;20297;-78
2021/12/01 07:07:12;;;;;;;4.50;3.43;;;4.60;99.90;;;;;;4992067;28;20225;-80
2021/12/01 07:09:38;;;;;;;4.07;3.10;;;4.60;99.90;;;;;;5000599;28;20560;-79
2021/12/01 07:12:04;;;;;;;3.53;3.00;;;4.60;99.90;;;;;;4999772;28;20230;-77
2021/12/01 07:14:30;;;;;;;4.97;3.40;;;4.60;99.90;;;;;;5002380;28;20225;-76
2021/12/01 07:16:55;;;;;;;4.90;3.90;;;4.70;99.90;;;;;;5015876;28;20218;-75
2021/12/01 07:19:21;;;;;;;5.83;3.33;;;4.80;99.90;;;;;;5024477;28;20225;-74
2021/12/01 07:21:47;;;;;;;5.63;3.73;;;4.70;99.90;;;;;;5002281;28;22274;-75
2021/12/01 07:24:13;;;;;;;4.87;4.00;;;4.70;99.90;;;;;;5005743;28;20713;-75
2021/12/01 07:26:39;;;;;;;4.70;3.80;;;4.80;99.90;;;;;;4994894;28;20226;-77
2021/12/01 07:29:05;;;;;;;5.50;4.37;;;4.80;99.90;;;;;;4990342;28;20956;-76
2021/12/01 07:31:31;;;;;;;5.53;4.07;;;4.80;99.90;;;;;;4985521;28;20235;-76
2021/12/01 07:33:56;;;;;;;7.03;4.90;;;4.80;99.90;;;;;;4990740;28;20215;-77
2021/12/01 07:36:22;;;;;;;6.63;4.93;;;4.90;99.90;;;;;;4988933;28;20230;-76
2021/12/01 07:38:50;;;;;;;7.13;4.70;;;4.90;99.90;;;;;;5008032;28;20229;-76
2021/12/01 07:41:16;;;;;;;5.77;4.73;;;4.90;99.90;;;;;;5008685;28;20222;-76
2021/12/01 07:43:41;;;;;;;5.53;4.77;;;4.90;99.90;;;;;;5007036;28;20218;-75
2021/12/01 07:46:07;;;;;;;9.73;5.20;;;5.00;99.90;;;;;;5001974;28;20226;-76
2021/12/01 07:48:32;;;;;;;5.50;5.00;;;5.10;99.90;;;;;;5009017;28;20246;-75
2021/12/01 07:50:58;;;;;;;9.53;7.10;;;5.20;99.90;;;;;;5006416;28;20234;-73
2021/12/01 07:53:23;;;;;;;6.03;5.47;;;5.30;99.90;;;;;;5008952;28;20233;-73
2021/12/01 07:55:49;;;;;;;6.30;5.50;;;5.40;99.90;;;;;;5000241;28;20222;-77
2021/12/01 07:58:14;;;;;;;6.10;5.60;;;5.40;99.90;;;;;;5010349;28;20210;-78
2021/12/01 08:00:40;;;;;;;6.47;5.80;;;5.50;99.90;;;;;;4999398;28;20232;-75
2021/12/01 08:03:05;;;;;;;6.67;5.70;;;5.60;99.90;;;;;;5004748;28;20253;-78
2021/12/01 08:05:32;;;;;;;5.87;5.37;;;5.70;99.90;;;;;;4996910;28;20223;-76
2021/12/01 08:07:57;;;;;;;6.83;6.23;;;5.70;99.90;;;;;;5004188;28;20230;-75
2021/12/01 08:10:23;;;;;;;6.80;6.00;;;5.80;99.90;;;;;;5003220;28;20226;-74
2021/12/01 08:12:48;;;;;;;6.43;5.83;;;5.90;99.90;;;;;;5031003;28;20211;-77
2021/12/01 08:15:14;;;;;;;5.97;5.47;;;6.00;99.90;;;;;;5004320;28;20260;-77
2021/12/01 08:17:40;;;;;;;6.67;6.07;;;6.00;99.90;;;;;;5013310;28;20226;-78
2021/12/01 08:20:06;;;;;;;6.77;6.17;;;6.10;99.90;;;;;;5006781;28;20207;-77
2021/12/01 08:22:31;;;;;;;6.40;5.80;;;6.10;99.90;;;;;;5005873;28;20215;-78
2021/12/01 08:24:59;;;;;;;7.10;5.87;;;6.10;99.90;;;;;;5007225;28;20211;-78
2021/12/01 08:27:27;;;;;;;5.80;5.30;;;6.20;99.90;;;;;;5004028;28;20270;-80
2021/12/01 08:29:53;;;;;;;6.70;6.20;;;6.20;99.90;;;;;;5022071;28;20230;-77
2021/12/01 08:32:19;;;;;;;6.50;5.73;;;6.20;99.90;;;;;;5025299;28;20603;-79
2021/12/01 08:34:49;;;;;;;6.47;5.97;;;6.30;99.90;;;;;;5017584;28;20222;-79
2021/12/01 08:37:18;;;;;;;7.77;7.03;;;6.30;99.90;;;;;;5003058;28;20373;-80
2021/12/01 08:39:44;;;;;;;6.80;6.20;;;6.30;99.90;;;;;;5005155;28;21047;-79
2021/12/01 08:42:10;;;;;;;7.10;6.20;;;6.30;99.90;;;;;;4997320;28;20269;-80
2021/12/01 08:44:36;;;;;;;6.20;5.70;;;6.30;99.90;;;;;;4991323;28;20218;-76
2021/12/01 08:47:02;;;;;;;5.90;5.30;;;6.40;99.90;;;;;;4991594;28;20218;-78
2021/12/01 08:49:28;;;;;;;6.07;5.53;;;6.40;99.90;;;;;;4990806;28;20219;-82
2021/12/01 08:51:54;;;;;;;7.75;7.05;;;6.40;99.90;;;;;;5007188;28;20428;-79
2021/12/01 08:54:19;;;;;;;7.40;6.80;;;6.50;99.90;;;;;;4989621;28;20425;-74
2021/12/01 08:56:45;;;;;;;6.90;6.33;;;6.50;99.90;;;;;;4993908;28;20413;-79
2021/12/01 08:59:10;;;;;;;6.40;5.90;;;6.50;99.90;;;;;;4989586;28;20435;-79
2021/12/01 09:01:36;;;;;;;6.47;5.88;;;6.50;99.90;;;;;;4990236;28;20483;-77
2021/12/01 09:04:02;;;;;;;5.28;4.88;;;6.60;99.90;;;;;;4987253;28;21191;-77
2021/12/01 09:06:28;;;;;;;6.32;5.85;;;6.60;99.90;;;;;;4987064;28;20416;-77
2021/12/01 09:08:53;;;;;;;5.68;5.18;;;6.50;99.90;;;;;;4988725;28;20959;-79
2021/12/01 09:11:19;;;;;;;5.40;5.00;;;6.60;99.90;;;;;;4991722;28;20756;-79
2021/12/01 09:13:44;;;;;;;5.50;5.00;;;6.60;99.90;;;;;;4992256;28;20589;-79
2021/12/01 09:16:10;;;;;;;5.10;4.70;;;6.60;99.90;;;;;;4994358;28;20879;-76
2021/12/01 09:18:37;;;;;;;4.80;4.40;;;6.60;99.90;;;;;;4998834;28;20502;-80
2021/12/01 09:21:03;;;;;;;4.75;4.28;;;6.60;99.90;;;;;;4996089;28;20515;-79
2021/12/01 09:23:29;;;;;;;4.40;4.00;;;6.60;99.90;;;;;;4988232;28;20991;-77
2021/12/01 09:25:54;;;;;;;4.07;3.78;;;6.60;99.90;;;;;;4989294;28;20443;-80
2021/12/01 09:28:22;;;;;;;4.20;3.90;;;6.60;99.90;;;;;;4989041;28;20427;-78
2021/12/01 09:30:49;;;;;;;3.78;3.40;;;6.70;99.90;;;;;;4991596;28;20891;-80
2021/12/01 09:33:16;;;;;;;3.40;3.10;;;6.70;99.90;;;;;;4989925;28;21544;-79
2021/12/01 09:35:43;;;;;;;3.20;3.00;;;6.60;99.90;;;;;;4989154;28;20757;-77
2021/12/01 09:38:13;;;;;;;3.40;3.10;;;6.60;99.90;;;;;;4989124;28;20417;-78
2021/12/01 09:40:46;;;;;;;3.58;3.28;;;6.70;99.90;;;;;;4988438;28;20413;-79
2021/12/01 09:43:12;;;;;;;3.73;3.33;;;6.70;99.90;;;;;;4988328;28;20422;-75
2021/12/01 09:45:38;;;;;;;3.33;3.03;;;6.70;99.90;;;;;;4989030;28;20447;-78
2021/12/01 09:48:04;;;;;;;3.40;3.10;;;6.80;99.90;;;;;;4987840;28;20541;-77
2021/12/01 09:50:29;;;;;;;3.33;3.03;;;6.80;99.90;;;;;;4996387;28;20512;-77
2021/12/01 09:52:55;;;;;;;2.70;2.50;;;6.80;99.90;;;;;;5001033;28;20411;-77
2021/12/01 09:55:21;;;;;;;2.70;2.50;;;6.80;99.90;;;;;;4985965;28;20410;-77
2021/12/01 09:57:59;;;;;;;3.47;2.90;;;6.90;99.90;;;;;;4989444;28;20417;-77
2021/12/01 10:00:26;;;;;;;3.10;2.88;;;6.90;99.90;;;;;;4987681;28;20538;-77
2021/12/01 10:02:51;;;;;;;3.00;2.70;;;6.90;99.90;;;;;;5012532;28;20387;-76
2021/12/01 10:06:03;;;;;;;3.20;2.80;;;6.90;99.90;;;;;;5017431;28;20515;-73
2021/12/01 10:08:41;;;;;;;2.90;2.70;;;7.00;99.90;;;;;;5016541;28;20395;-77
2021/12/01 10:11:16;;;;;;;2.90;2.60;;;7.00;99.90;;;;;;5003223;28;20456;-75
2021/12/01 10:13:52;;;;;;;3.67;2.80;;;7.00;99.90;;;;;;4999599;28;20417;-74
2021/12/01 10:16:19;;;;;;;2.83;2.63;;;7.00;99.90;;;;;;4998151;28;20882;-74
2021/12/01 10:18:47;;;;;;;2.95;2.75;;;6.90;99.90;;;;;;5003690;28;20408;-74
2021/12/01 10:21:21;;;;;;;3.17;2.88;;;7.00;99.90;;;;;;5000053;28;20466;-75
2021/12/01 10:23:54;;;;;;;3.50;3.20;;;6.90;99.90;;;;;;5006249;28;20396;-74
2021/12/01 10:26:25;;;;;;;3.75;3.38;;;7.00;99.90;;;;;;5005574;28;20474;-75
2021/12/01 10:28:56;;;;;;;3.08;2.78;;;7.00;99.90;;;;;;5007417;28;20487;-75
2021/12/01 10:31:41;;;;;;;4.47;3.40;;;7.00;99.90;;;;;;5005696;28;20416;-76
2021/12/01 10:34:19;;;;;;;3.50;3.20;;;7.10;99.90;;;;;;5009300;28;20935;-76
2021/12/01 10:36:46;;;;;;;3.60;3.30;;;7.00;99.90;;;;;;5004501;28;20412;-77
2021/12/01 10:39:12;;;;;;;3.15;2.95;;;7.00;99.90;;;;;;5014416;28;20413;-76
2021/12/01 10:41:41;;;;;;;3.50;3.20;;;7.00;99.90;;;;;;5003855;28;20424;-78
2021/12/01 10:44:16;;;;;;;5.13;3.97;;;7.00;99.90;;;;;;4998205;28;20428;-78
2021/12/01 10:46:47;;;;;;;4.20;3.80;;;7.10;99.90;;;;;;4999362;28;20948;-75
2021/12/01 10:49:13;;;;;;;4.87;3.90;;;7.00;99.90;;;;;;5003242;28;20945;-74
2021/12/01 10:51:40;;;;;;;5.80;4.13;;;7.10;99.90;;;;;;4993973;28;20421;-75
2021/12/01 10:54:18;;;;;;;3.60;3.30;;;7.10;99.90;;;;;;5002216;28;20477;-76
2021/12/01 10:56:44;;;;;;;3.60;3.30;;;7.00;99.90;;;;;;5005364;28;20863;-75
2021/12/01 10:59:11;;;;;;;4.33;3.80;;;7.00;99.90;;;;;;5001169;28;20463;-76
2021/12/01 11:01:37;;;;;;;3.40;3.20;;;7.00;99.90;;;;;;4998147;28;20886;-77
2021/12/01 11:04:03;;;;;;;3.17;2.95;;;7.00;99.90;;;;;;4994560;28;20421;-78
2021/12/01 11:06:33;;;;;;;3.53;3.30;;;6.90;99.90;;;;;;4991246;28;20812;-76
2021/12/01 11:08:59;;;;;;;3.40;3.20;;;6.80;99.90;;;;;;4992329;28;20506;-77
2021/12/01 11:11:44;;;;;;;3.60;3.30;;;6.80;99.90;;;;;;4991602;28;20429;-80
2021/12/01 11:14:16;;;;;;;4.25;3.75;;;6.80;99.90;;;;;;4992275;28;20516;-75
2021/12/01 11:16:42;;;;;;;3.50;3.20;;;6.80;99.90;;;;;;5000186;28;20389;-76
2021/12/01 11:19:08;;;;;;;3.40;3.10;;;6.80;99.90;;;;;;5016656;28;20451;-76
2021/12/01 11:21:35;;;;;;;3.45;3.13;;;6.80;99.90;;;;;;5012164;28;20761;-78
2021/12/01 11:24:08;;;;;;;3.13;2.92;;;6.80;99.90;;;;;;5012794;28;20609;-76
2021/12/01 11:26:35;;;;;;;4.43;3.15;;;6.80;99.90;;;;;;5008799;28;20417;-76
2021/12/01 11:29:05;;;;;;;3.60;3.30;;;6.90;99.90;;;;;;4990860;28;20559;-78
2021/12/01 11:31:37;;;;;;;3.33;3.03;;;6.80;99.90;;;;;;4992533;28;20510;-77
2021/12/01 11:34:06;;;;;;;2.92;2.72;;;6.90;99.90;;;;;;5004738;28;20422;-74
2021/12/01 11:36:42;;;;;;;3.20;2.90;;;6.90;99.90;;;;;;4989136;28;20424;-79
2021/12/01 11:39:11;;;;;;;3.00;2.80;;;6.90;99.90;;;;;;5009831;28;20408;-76
2021/12/01 11:41:42;;;;;;;2.65;2.45;;;7.00;99.90;;;;;;5008907;28;20413;-77
2021/12/01 11:44:09;;;;;;;3.22;2.92;;;7.00;99.90;;;;;;4994289;28;20913;-76
2021/12/01 11:46:34;;;;;;;3.05;2.75;;;7.00;99.90;;;;;;5005184;28;20420;-79
2021/12/01 11:49:14;;;;;;;2.80;2.60;;;7.10;99.90;;;;;;5008636;28;20448;-76
2021/12/01 11:51:50;;;;;;;3.30;2.42;;;7.00;99.90;;;;;;4994651;28;20458;-76
2021/12/01 11:54:19;;;;;;;2.88;2.65;;;7.10;99.90;;;;;;5007453;28;20401;-78
2021/12/01 11:56:52;;;;;;;2.72;2.30;;;7.10;99.90;;;;;;5022861;28;20396;-79
2021/12/01 11:59:19;;;;;;;3.03;2.63;;;7.20;99.90;;;;;;5007292;28;20413;-80
2021/12/01 12:01:56;;;;;;;2.65;2.45;;;7.20;99.90;;;;;;5014903;28;20780;-79
2021/12/01 12:04:27;;;;;;;2.60;2.40;;;7.20;99.90;;;;;;5005896;28;20413;-80
2021/12/01 12:06:59;;;;;;;2.83;2.53;;;7.20;99.90;;;;;;5005485;28;20434;-78
2021/12/01 12:09:27;;;;;;;2.50;2.30;;;7.20;99.90;;;;;;5016679;28;20423;-78
2021/12/01 12:11:57;;;;;;;1.98;1.88;;;7.20;99.90;;;;;;5011102;28;20918;-76
2021/12/01 12:14:35;;;;;;;2.40;2.20;;;7.30;99.90;;;;;;5004944;28;20497;-78
2021/12/01 12:17:08;;;;;;;2.17;2.08;;;7.30;99.90;;;;;;5012966;28;20516;-75
2021/12/01 12:19:43;;;;;;;2.15;2.03;;;7.30;99.90;;;;;;5006815;28;20409;-78
2021/12/01 12:22:16;;;;;;;2.40;2.20;;;7.30;99.90;;;;;;5006748;28;22981;-78
2021/12/01 12:24:45;;;;;;;2.38;2.17;;;7.40;99.90;;;;;;4998776;28;20974;-78
2021/12/01 12:27:38;;;;;;;2.30;2.10;;;7.30;99.90;;;;;;5000060;28;20778;-79
2021/12/01 12:30:09;;;;;;;2.10;1.90;;;7.30;99.90;;;;;;5000071;28;20425;-75
2021/12/01 12:32:34;;;;;;;2.67;2.15;;;7.40;99.90;;;;;;4997413;28;20417;-74
2021/12/01 12:35:05;;;;;;;1.80;1.70;;;7.40;99.90;;;;;;5014952;28;20509;-70
2021/12/01 12:37:32;;;;;;;2.05;1.92;;;7.40;99.90;;;;;;5026650;28;20938;-75
2021/12/01 12:40:00;;;;;;;1.90;1.80;;;7.50;99.90;;;;;;5002961;28;20561;-76
2021/12/01 12:42:26;;;;;;;1.83;1.73;;;7.50;99.90;;;;;;5001113;28;20500;-76
2021/12/01 12:44:56;;;;;;;1.90;1.80;;;7.60;99.90;;;;;;4993030;28;20431;-73
2021/12/01 12:47:45;;;;;;;1.90;1.80;;;7.60;99.90;;;;;;4985598;28;20412;-77
2021/12/01 12:50:24;;;;;;;1.98;1.77;;;7.60;99.90;;;;;;4988970;28;20525;-78
2021/12/01 12:52:52;;;;;;;2.08;1.88;;;7.60;99.90;;;;;;4986161;28;20421;-79
2021/12/01 12:55:23;;;;;;;3.05;2.05;;;7.70;99.90;;;;;;4989072;28;20521;-78
2021/12/01 12:58:01;;;;;;;2.00;1.80;;;7.70;99.90;;;;;;4987543;28;20519;-77
2021/12/01 13:00:33;;;;;;;1.70;1.60;;;7.70;99.90;;;;;;4990702;28;20456;-76
2021/12/01 13:03:34;;;;;;;2.42;1.95;;;7.80;99.90;;;;;;4995208;28;20428;-78